sensor_id;sensor_type;location;lat;lon;timestamp;P1;durP1;ratioP1;P2;durP2;ratioP2
36797;SDS011;22748;8.426;99.512;2024-03-08T00:00:56;55.65;;;28.35;;
36797;SDS011;22748;8.426;99.512;2024-03-08T00:03:25;69.45;;;35.75;;
36797;SDS011;22748;8.426;99.512;2024-03-08T00:05:55;42.72;;;28.35;;
36797;SDS011;22748;8.426;99.512;2024-03-08T00:08:30;44.92;;;28.40;;
36797;SDS011;22748;8.426;99.512;2024-03-08T00:10:59;42.72;;;28.83;;
36797;SDS011;22748;8.426;99.512;2024-03-08T00:13:30;42.97;;;28.88;;
36797;SDS011;22748;8.426;99.512;2024-03-08T00:16:00;44.72;;;31.80;;
36797;SDS011;22748;8.426;99.512;2024-03-08T00:18:31;47.22;;;31.92;;
36797;SDS011;22748;8.426;99.512;2024-03-08T00:21:01;36.10;;;29.15;;
36797;SDS011;22748;8.426;99.512;2024-03-08T00:23:32;33.30;;;27.98;;
36797;SDS011;22748;8.426;99.512;2024-03-08T00:26:03;39.15;;;31.63;;
36797;SDS011;22748;8.426;99.512;2024-03-08T00:28:33;30.85;;;25.95;;
36797;SDS011;22748;8.426;99.512;2024-03-08T00:31:04;28.48;;;24.77;;
36797;SDS011;22748;8.426;99.512;2024-03-08T00:33:33;26.88;;;24.17;;
36797;SDS011;22748;8.426;99.512;2024-03-08T00:36:03;34.13;;;24.48;;
36797;SDS011;22748;8.426;99.512;2024-03-08T00:38:40;35.93;;;25.33;;
36797;SDS011;22748;8.426;99.512;2024-03-08T00:41:09;33.55;;;25.33;;
36797;SDS011;22748;8.426;99.512;2024-03-08T00:43:39;33.55;;;25.30;;
36797;SDS011;22748;8.426;99.512;2024-03-08T00:46:09;31.73;;;25.65;;
36797;SDS011;22748;8.426;99.512;2024-03-08T00:48:39;30.27;;;24.92;;
36797;SDS011;22748;8.426;99.512;2024-03-08T00:51:10;36.13;;;25.85;;
36797;SDS011;22748;8.426;99.512;2024-03-08T00:53:47;29.90;;;24.13;;
36797;SDS011;22748;8.426;99.512;2024-03-08T00:56:17;32.28;;;25.00;;
36797;SDS011;22748;8.426;99.512;2024-03-08T00:58:47;33.93;;;25.53;;
36797;SDS011;22748;8.426;99.512;2024-03-08T01:01:18;29.25;;;25.30;;
36797;SDS011;22748;8.426;99.512;2024-03-08T01:03:48;28.55;;;24.23;;
36797;SDS011;22748;8.426;99.512;2024-03-08T01:06:17;36.25;;;25.80;;
36797;SDS011;22748;8.426;99.512;2024-03-08T01:08:53;35.03;;;25.52;;
36797;SDS011;22748;8.426;99.512;2024-03-08T01:11:23;28.30;;;24.65;;
36797;SDS011;22748;8.426;99.512;2024-03-08T01:13:54;27.20;;;24.30;;
36797;SDS011;22748;8.426;99.512;2024-03-08T01:16:24;35.05;;;26.02;;
36797;SDS011;22748;8.426;99.512;2024-03-08T01:18:54;29.02;;;23.27;;
36797;SDS011;22748;8.426;99.512;2024-03-08T01:21:24;29.52;;;24.45;;
36797;SDS011;22748;8.426;99.512;2024-03-08T01:24:00;29.23;;;25.17;;
36797;SDS011;22748;8.426;99.512;2024-03-08T01:26:30;27.40;;;22.83;;
36797;SDS011;22748;8.426;99.512;2024-03-08T01:29:00;26.17;;;22.08;;
36797;SDS011;22748;8.426;99.512;2024-03-08T01:31:30;30.98;;;22.88;;
36797;SDS011;22748;8.426;99.512;2024-03-08T01:34:00;24.90;;;22.27;;
36797;SDS011;22748;8.426;99.512;2024-03-08T01:36:31;30.60;;;24.85;;
36797;SDS011;22748;8.426;99.512;2024-03-08T01:39:06;54.00;;;29.17;;
36797;SDS011;22748;8.426;99.512;2024-03-08T01:41:37;33.80;;;24.90;;
36797;SDS011;22748;8.426;99.512;2024-03-08T01:44:06;29.20;;;24.63;;
36797;SDS011;22748;8.426;99.512;2024-03-08T01:46:36;36.95;;;25.13;;
36797;SDS011;22748;8.426;99.512;2024-03-08T01:49:06;28.88;;;24.42;;
36797;SDS011;22748;8.426;99.512;2024-03-08T01:51:37;35.97;;;24.50;;
36797;SDS011;22748;8.426;99.512;2024-03-08T01:54:11;32.05;;;23.55;;
36797;SDS011;22748;8.426;99.512;2024-03-08T01:56:41;27.60;;;21.15;;
36797;SDS011;22748;8.426;99.512;2024-03-08T01:59:11;24.67;;;21.67;;
36797;SDS011;22748;8.426;99.512;2024-03-08T02:01:41;26.67;;;22.00;;
36797;SDS011;22748;8.426;99.512;2024-03-08T02:04:12;26.83;;;21.07;;
36797;SDS011;22748;8.426;99.512;2024-03-08T02:06:43;23.58;;;21.08;;
36797;SDS011;22748;8.426;99.512;2024-03-08T02:09:19;23.83;;;21.30;;
36797;SDS011;22748;8.426;99.512;2024-03-08T02:11:49;30.70;;;22.92;;
36797;SDS011;22748;8.426;99.512;2024-03-08T02:14:19;28.53;;;23.90;;
36797;SDS011;22748;8.426;99.512;2024-03-08T02:16:49;27.65;;;24.40;;
36797;SDS011;22748;8.426;99.512;2024-03-08T02:19:20;37.85;;;29.00;;
36797;SDS011;22748;8.426;99.512;2024-03-08T02:21:57;35.50;;;29.30;;
36797;SDS011;22748;8.426;99.512;2024-03-08T02:24:27;36.00;;;29.52;;
36797;SDS011;22748;8.426;99.512;2024-03-08T02:26:56;36.85;;;31.08;;
36797;SDS011;22748;8.426;99.512;2024-03-08T02:29:26;41.22;;;30.42;;
36797;SDS011;22748;8.426;99.512;2024-03-08T02:31:56;32.70;;;24.95;;
36797;SDS011;22748;8.426;99.512;2024-03-08T02:34:26;30.30;;;22.02;;
36797;SDS011;22748;8.426;99.512;2024-03-08T02:39:32;28.08;;;21.92;;
36797;SDS011;22748;8.426;99.512;2024-03-08T02:42:02;23.40;;;20.58;;
36797;SDS011;22748;8.426;99.512;2024-03-08T02:44:33;21.48;;;19.20;;
36797;SDS011;22748;8.426;99.512;2024-03-08T02:47:02;24.85;;;19.98;;
36797;SDS011;22748;8.426;99.512;2024-03-08T02:49:32;23.42;;;19.88;;
36797;SDS011;22748;8.426;99.512;2024-03-08T02:54:34;29.65;;;19.23;;
36797;SDS011;22748;8.426;99.512;2024-03-08T02:57:04;23.75;;;19.33;;
36797;SDS011;22748;8.426;99.512;2024-03-08T02:59:35;28.35;;;21.58;;
36797;SDS011;22748;8.426;99.512;2024-03-08T03:02:06;25.95;;;21.35;;
36797;SDS011;22748;8.426;99.512;2024-03-08T03:04:36;23.40;;;19.00;;
36797;SDS011;22748;8.426;99.512;2024-03-08T03:07:06;24.20;;;18.20;;
36797;SDS011;22748;8.426;99.512;2024-03-08T03:12:12;21.48;;;16.38;;
36797;SDS011;22748;8.426;99.512;2024-03-08T03:14:42;21.88;;;16.88;;
36797;SDS011;22748;8.426;99.512;2024-03-08T03:17:12;22.27;;;16.77;;
36797;SDS011;22748;8.426;99.512;2024-03-08T03:19:42;20.13;;;15.50;;
36797;SDS011;22748;8.426;99.512;2024-03-08T03:22:13;19.52;;;17.55;;
36797;SDS011;22748;8.426;99.512;2024-03-08T03:24:43;18.67;;;16.50;;
36797;SDS011;22748;8.426;99.512;2024-03-08T03:27:15;20.70;;;15.15;;
36797;SDS011;22748;8.426;99.512;2024-03-08T03:29:46;17.05;;;15.25;;
36797;SDS011;22748;8.426;99.512;2024-03-08T03:32:17;15.55;;;13.95;;
36797;SDS011;22748;8.426;99.512;2024-03-08T03:34:47;18.13;;;13.80;;
36797;SDS011;22748;8.426;99.512;2024-03-08T03:37:19;19.05;;;14.35;;
36797;SDS011;22748;8.426;99.512;2024-03-08T03:39:48;19.20;;;13.07;;
36797;SDS011;22748;8.426;99.512;2024-03-08T03:42:25;21.30;;;14.65;;
36797;SDS011;22748;8.426;99.512;2024-03-08T03:45:07;16.50;;;13.88;;
36797;SDS011;22748;8.426;99.512;2024-03-08T03:47:42;18.17;;;13.88;;
36797;SDS011;22748;8.426;99.512;2024-03-08T03:52:40;16.95;;;13.68;;
36797;SDS011;22748;8.426;99.512;2024-03-08T03:55:10;16.27;;;14.70;;
36797;SDS011;22748;8.426;99.512;2024-03-08T03:57:46;18.55;;;14.30;;
36797;SDS011;22748;8.426;99.512;2024-03-08T04:00:17;20.20;;;15.00;;
36797;SDS011;22748;8.426;99.512;2024-03-08T04:02:47;19.67;;;16.02;;
36797;SDS011;22748;8.426;99.512;2024-03-08T04:05:17;18.08;;;15.45;;
36797;SDS011;22748;8.426;99.512;2024-03-08T04:07:47;16.85;;;15.15;;
36797;SDS011;22748;8.426;99.512;2024-03-08T04:10:17;19.08;;;17.17;;
36797;SDS011;22748;8.426;99.512;2024-03-08T04:12:53;18.13;;;14.80;;
36797;SDS011;22748;8.426;99.512;2024-03-08T04:15:23;16.45;;;14.55;;
36797;SDS011;22748;8.426;99.512;2024-03-08T04:17:53;15.73;;;14.07;;
36797;SDS011;22748;8.426;99.512;2024-03-08T04:20:23;24.80;;;15.25;;
36797;SDS011;22748;8.426;99.512;2024-03-08T04:22:54;16.27;;;13.43;;
36797;SDS011;22748;8.426;99.512;2024-03-08T04:25:24;18.80;;;14.20;;
36797;SDS011;22748;8.426;99.512;2024-03-08T04:28:00;19.67;;;14.43;;
36797;SDS011;22748;8.426;99.512;2024-03-08T04:30:31;16.80;;;14.10;;
36797;SDS011;22748;8.426;99.512;2024-03-08T04:35:30;30.88;;;23.45;;
36797;SDS011;22748;8.426;99.512;2024-03-08T04:38:01;24.40;;;21.83;;
36797;SDS011;22748;8.426;99.512;2024-03-08T04:40:32;19.92;;;17.83;;
36797;SDS011;22748;8.426;99.512;2024-03-08T04:43:08;16.92;;;15.25;;
36797;SDS011;22748;8.426;99.512;2024-03-08T04:45:38;17.88;;;15.63;;
36797;SDS011;22748;8.426;99.512;2024-03-08T04:48:10;19.15;;;15.32;;
36797;SDS011;22748;8.426;99.512;2024-03-08T04:50:40;19.00;;;15.75;;
36797;SDS011;22748;8.426;99.512;2024-03-08T04:53:11;17.83;;;15.93;;
36797;SDS011;22748;8.426;99.512;2024-03-08T04:55:41;17.60;;;15.77;;
36797;SDS011;22748;8.426;99.512;2024-03-08T04:58:17;19.58;;;16.50;;
36797;SDS011;22748;8.426;99.512;2024-03-08T05:00:47;18.80;;;16.20;;
36797;SDS011;22748;8.426;99.512;2024-03-08T05:03:18;15.80;;;14.15;;
36797;SDS011;22748;8.426;99.512;2024-03-08T05:05:51;17.45;;;15.63;;
36797;SDS011;22748;8.426;99.512;2024-03-08T05:08:23;17.10;;;15.30;;
36797;SDS011;22748;8.426;99.512;2024-03-08T05:10:53;18.65;;;15.63;;
36797;SDS011;22748;8.426;99.512;2024-03-08T05:13:29;16.77;;;15.10;;
36797;SDS011;22748;8.426;99.512;2024-03-08T05:16:01;17.20;;;15.00;;
36797;SDS011;22748;8.426;99.512;2024-03-08T05:18:31;17.10;;;15.30;;
36797;SDS011;22748;8.426;99.512;2024-03-08T05:21:00;15.50;;;13.75;;
36797;SDS011;22748;8.426;99.512;2024-03-08T05:23:30;14.27;;;12.77;;
36797;SDS011;22748;8.426;99.512;2024-03-08T05:26:01;15.57;;;13.82;;
36797;SDS011;22748;8.426;99.512;2024-03-08T05:28:37;18.02;;;15.43;;
36797;SDS011;22748;8.426;99.512;2024-03-08T05:31:08;14.68;;;13.18;;
36797;SDS011;22748;8.426;99.512;2024-03-08T05:33:40;14.40;;;12.93;;
36797;SDS011;22748;8.426;99.512;2024-03-08T05:36:10;13.10;;;11.75;;
36797;SDS011;22748;8.426;99.512;2024-03-08T05:41:10;13.38;;;12.05;;
36797;SDS011;22748;8.426;99.512;2024-03-08T05:46:16;13.70;;;12.30;;
36797;SDS011;22748;8.426;99.512;2024-03-08T05:48:47;13.80;;;12.38;;
36797;SDS011;22748;8.426;99.512;2024-03-08T05:51:17;16.10;;;11.70;;
36797;SDS011;22748;8.426;99.512;2024-03-08T05:53:48;15.13;;;12.90;;
36797;SDS011;22748;8.426;99.512;2024-03-08T05:56:19;13.18;;;11.88;;
36797;SDS011;22748;8.426;99.512;2024-03-08T05:58:49;15.63;;;11.70;;
36797;SDS011;22748;8.426;99.512;2024-03-08T06:01:25;12.23;;;10.90;;
36797;SDS011;22748;8.426;99.512;2024-03-08T06:03:55;15.32;;;11.90;;
36797;SDS011;22748;8.426;99.512;2024-03-08T06:06:25;14.30;;;11.15;;
36797;SDS011;22748;8.426;99.512;2024-03-08T06:08:55;12.10;;;10.93;;
36797;SDS011;22748;8.426;99.512;2024-03-08T06:11:25;10.93;;;9.98;;
36797;SDS011;22748;8.426;99.512;2024-03-08T06:13:56;12.10;;;10.90;;
36797;SDS011;22748;8.426;99.512;2024-03-08T06:16:30;12.25;;;10.85;;
36797;SDS011;22748;8.426;99.512;2024-03-08T06:19:02;13.02;;;11.63;;
36797;SDS011;22748;8.426;99.512;2024-03-08T06:21:32;11.93;;;11.00;;
36797;SDS011;22748;8.426;99.512;2024-03-08T06:24:02;12.57;;;11.37;;
36797;SDS011;22748;8.426;99.512;2024-03-08T06:26:33;12.65;;;11.48;;
36797;SDS011;22748;8.426;99.512;2024-03-08T06:29:04;12.75;;;11.43;;
36797;SDS011;22748;8.426;99.512;2024-03-08T06:31:38;12.93;;;11.63;;
36797;SDS011;22748;8.426;99.512;2024-03-08T06:34:07;13.95;;;10.95;;
36797;SDS011;22748;8.426;99.512;2024-03-08T06:36:37;11.93;;;10.47;;
36797;SDS011;22748;8.426;99.512;2024-03-08T06:39:08;12.98;;;11.80;;
36797;SDS011;22748;8.426;99.512;2024-03-08T06:41:38;12.60;;;11.33;;
36797;SDS011;22748;8.426;99.512;2024-03-08T06:44:07;14.13;;;11.95;;
36797;SDS011;22748;8.426;99.512;2024-03-08T06:46:43;12.23;;;11.07;;
36797;SDS011;22748;8.426;99.512;2024-03-08T06:49:14;12.15;;;10.95;;
36797;SDS011;22748;8.426;99.512;2024-03-08T06:51:44;12.45;;;11.35;;
36797;SDS011;22748;8.426;99.512;2024-03-08T06:54:14;14.95;;;12.02;;
36797;SDS011;22748;8.426;99.512;2024-03-08T06:56:44;14.52;;;11.98;;
36797;SDS011;22748;8.426;99.512;2024-03-08T06:59:14;12.93;;;11.57;;
36797;SDS011;22748;8.426;99.512;2024-03-08T07:01:50;13.63;;;12.30;;
36797;SDS011;22748;8.426;99.512;2024-03-08T07:04:20;13.50;;;12.18;;
36797;SDS011;22748;8.426;99.512;2024-03-08T07:06:54;14.05;;;12.27;;
36797;SDS011;22748;8.426;99.512;2024-03-08T07:09:27;13.50;;;12.30;;
36797;SDS011;22748;8.426;99.512;2024-03-08T07:11:57;14.07;;;12.68;;
36797;SDS011;22748;8.426;99.512;2024-03-08T07:14:28;17.08;;;12.75;;
36797;SDS011;22748;8.426;99.512;2024-03-08T07:17:04;15.10;;;13.50;;
36797;SDS011;22748;8.426;99.512;2024-03-08T07:19:35;15.00;;;13.60;;
36797;SDS011;22748;8.426;99.512;2024-03-08T07:22:05;15.70;;;14.10;;
36797;SDS011;22748;8.426;99.512;2024-03-08T07:24:37;16.20;;;14.70;;
36797;SDS011;22748;8.426;99.512;2024-03-08T07:27:22;14.85;;;13.55;;
36797;SDS011;22748;8.426;99.512;2024-03-08T07:29:53;16.02;;;14.32;;
36797;SDS011;22748;8.426;99.512;2024-03-08T07:32:30;15.30;;;13.80;;
36797;SDS011;22748;8.426;99.512;2024-03-08T07:35:01;15.45;;;13.82;;
36797;SDS011;22748;8.426;99.512;2024-03-08T07:37:31;14.40;;;13.02;;
36797;SDS011;22748;8.426;99.512;2024-03-08T07:40:02;23.30;;;18.67;;
36797;SDS011;22748;8.426;99.512;2024-03-08T07:42:32;17.00;;;15.30;;
36797;SDS011;22748;8.426;99.512;2024-03-08T07:45:02;22.60;;;14.77;;
36797;SDS011;22748;8.426;99.512;2024-03-08T07:47:40;15.48;;;13.88;;
36797;SDS011;22748;8.426;99.512;2024-03-08T07:50:10;14.68;;;13.27;;
36797;SDS011;22748;8.426;99.512;2024-03-08T07:52:42;17.10;;;14.13;;
36797;SDS011;22748;8.426;99.512;2024-03-08T07:55:12;14.93;;;13.48;;
36797;SDS011;22748;8.426;99.512;2024-03-08T07:57:42;14.57;;;13.10;;
36797;SDS011;22748;8.426;99.512;2024-03-08T08:00:14;17.35;;;14.93;;
36797;SDS011;22748;8.426;99.512;2024-03-08T08:02:52;14.68;;;12.98;;
36797;SDS011;22748;8.426;99.512;2024-03-08T08:05:22;14.73;;;13.25;;
36797;SDS011;22748;8.426;99.512;2024-03-08T08:07:53;15.32;;;13.82;;
36797;SDS011;22748;8.426;99.512;2024-03-08T08:10:23;15.57;;;14.07;;
36797;SDS011;22748;8.426;99.512;2024-03-08T08:12:55;15.48;;;13.88;;
36797;SDS011;22748;8.426;99.512;2024-03-08T08:15:25;16.33;;;14.82;;
36797;SDS011;22748;8.426;99.512;2024-03-08T08:18:01;15.43;;;13.95;;
36797;SDS011;22748;8.426;99.512;2024-03-08T08:20:32;15.90;;;13.93;;
36797;SDS011;22748;8.426;99.512;2024-03-08T08:23:02;16.60;;;14.93;;
36797;SDS011;22748;8.426;99.512;2024-03-08T08:25:32;18.45;;;14.02;;
36797;SDS011;22748;8.426;99.512;2024-03-08T08:28:04;25.63;;;14.77;;
36797;SDS011;22748;8.426;99.512;2024-03-08T08:30:34;17.70;;;14.57;;
36797;SDS011;22748;8.426;99.512;2024-03-08T08:33:11;15.27;;;13.70;;
36797;SDS011;22748;8.426;99.512;2024-03-08T08:35:41;16.25;;;14.55;;
36797;SDS011;22748;8.426;99.512;2024-03-08T08:38:11;14.95;;;13.45;;
36797;SDS011;22748;8.426;99.512;2024-03-08T08:40:41;16.33;;;13.23;;
36797;SDS011;22748;8.426;99.512;2024-03-08T08:43:12;13.93;;;12.60;;
36797;SDS011;22748;8.426;99.512;2024-03-08T08:45:41;14.15;;;12.82;;
36797;SDS011;22748;8.426;99.512;2024-03-08T08:48:19;15.18;;;13.25;;
36797;SDS011;22748;8.426;99.512;2024-03-08T08:50:48;14.88;;;13.55;;
36797;SDS011;22748;8.426;99.512;2024-03-08T08:53:19;15.35;;;12.85;;
36797;SDS011;22748;8.426;99.512;2024-03-08T08:55:50;14.60;;;13.25;;
36797;SDS011;22748;8.426;99.512;2024-03-08T08:58:19;14.52;;;12.75;;
36797;SDS011;22748;8.426;99.512;2024-03-08T09:00:49;14.00;;;12.43;;
36797;SDS011;22748;8.426;99.512;2024-03-08T09:03:25;13.52;;;11.90;;
36797;SDS011;22748;8.426;99.512;2024-03-08T09:05:56;14.18;;;12.75;;
36797;SDS011;22748;8.426;99.512;2024-03-08T09:08:26;14.43;;;12.90;;
36797;SDS011;22748;8.426;99.512;2024-03-08T09:10:56;18.55;;;14.18;;
36797;SDS011;22748;8.426;99.512;2024-03-08T09:13:28;14.68;;;13.18;;
36797;SDS011;22748;8.426;99.512;2024-03-08T09:15:58;14.10;;;12.13;;
36797;SDS011;22748;8.426;99.512;2024-03-08T09:18:30;15.05;;;13.45;;
36797;SDS011;22748;8.426;99.512;2024-03-08T09:21:01;17.38;;;12.73;;
36797;SDS011;22748;8.426;99.512;2024-03-08T09:23:31;13.00;;;11.77;;
36797;SDS011;22748;8.426;99.512;2024-03-08T09:26:02;13.43;;;12.13;;
36797;SDS011;22748;8.426;99.512;2024-03-08T09:28:35;14.02;;;12.43;;
36797;SDS011;22748;8.426;99.512;2024-03-08T09:31:05;15.40;;;11.50;;
36797;SDS011;22748;8.426;99.512;2024-03-08T09:33:40;12.93;;;11.82;;
36797;SDS011;22748;8.426;99.512;2024-03-08T09:36:11;14.95;;;12.90;;
36797;SDS011;22748;8.426;99.512;2024-03-08T09:38:41;13.40;;;12.13;;
36797;SDS011;22748;8.426;99.512;2024-03-08T09:41:11;11.93;;;10.93;;
36797;SDS011;22748;8.426;99.512;2024-03-08T09:43:41;13.40;;;11.80;;
36797;SDS011;22748;8.426;99.512;2024-03-08T09:46:13;12.57;;;11.27;;
36797;SDS011;22748;8.426;99.512;2024-03-08T09:48:51;13.38;;;11.85;;
36797;SDS011;22748;8.426;99.512;2024-03-08T09:51:21;12.40;;;11.32;;
36797;SDS011;22748;8.426;99.512;2024-03-08T09:53:57;12.18;;;11.07;;
36797;SDS011;22748;8.426;99.512;2024-03-08T09:56:26;12.85;;;11.48;;
36797;SDS011;22748;8.426;99.512;2024-03-08T09:58:56;14.25;;;12.02;;
36797;SDS011;22748;8.426;99.512;2024-03-08T10:01:47;13.27;;;11.80;;
36797;SDS011;22748;8.426;99.512;2024-03-08T10:06:48;16.10;;;11.52;;
36797;SDS011;22748;8.426;99.512;2024-03-08T10:09:18;13.05;;;11.30;;
36797;SDS011;22748;8.426;99.512;2024-03-08T10:11:47;16.02;;;14.48;;
36797;SDS011;22748;8.426;99.512;2024-03-08T10:14:18;15.68;;;14.27;;
36797;SDS011;22748;8.426;99.512;2024-03-08T10:16:48;16.27;;;13.32;;
36797;SDS011;22748;8.426;99.512;2024-03-08T10:19:19;14.95;;;13.48;;
36797;SDS011;22748;8.426;99.512;2024-03-08T10:21:51;16.70;;;13.90;;
36797;SDS011;22748;8.426;99.512;2024-03-08T10:24:25;14.50;;;13.10;;
36797;SDS011;22748;8.426;99.512;2024-03-08T10:26:56;14.65;;;13.15;;
36797;SDS011;22748;8.426;99.512;2024-03-08T10:29:36;15.23;;;13.32;;
36797;SDS011;22748;8.426;99.512;2024-03-08T10:32:10;18.67;;;12.65;;
36797;SDS011;22748;8.426;99.512;2024-03-08T10:34:40;14.63;;;13.10;;
36797;SDS011;22748;8.426;99.512;2024-03-08T10:42:29;19.25;;;14.70;;
36797;SDS011;22748;8.426;99.512;2024-03-08T10:45:02;14.35;;;12.95;;
36797;SDS011;22748;8.426;99.512;2024-03-08T10:47:36;14.50;;;12.63;;
36797;SDS011;22748;8.426;99.512;2024-03-08T10:50:11;16.40;;;12.63;;
36797;SDS011;22748;8.426;99.512;2024-03-08T10:52:44;14.70;;;13.23;;
36797;SDS011;22748;8.426;99.512;2024-03-08T10:55:15;13.80;;;12.35;;
36797;SDS011;22748;8.426;99.512;2024-03-08T10:57:53;15.25;;;13.10;;
36797;SDS011;22748;8.426;99.512;2024-03-08T11:00:23;15.65;;;13.95;;
36797;SDS011;22748;8.426;99.512;2024-03-08T11:02:54;16.70;;;13.88;;
36797;SDS011;22748;8.426;99.512;2024-03-08T11:05:36;15.15;;;13.63;;
36797;SDS011;22748;8.426;99.512;2024-03-08T11:08:16;15.00;;;13.48;;
36797;SDS011;22748;8.426;99.512;2024-03-08T11:10:47;17.77;;;13.63;;
36797;SDS011;22748;8.426;99.512;2024-03-08T11:13:37;21.27;;;14.07;;
36797;SDS011;22748;8.426;99.512;2024-03-08T11:16:07;16.17;;;14.52;;
36797;SDS011;22748;8.426;99.512;2024-03-08T11:18:38;15.80;;;14.20;;
36797;SDS011;22748;8.426;99.512;2024-03-08T11:21:08;17.37;;;15.43;;
36797;SDS011;22748;8.426;99.512;2024-03-08T11:23:40;22.88;;;15.38;;
36797;SDS011;22748;8.426;99.512;2024-03-08T11:26:20;17.65;;;15.85;;
36797;SDS011;22748;8.426;99.512;2024-03-08T11:28:52;20.73;;;16.65;;
36797;SDS011;22748;8.426;99.512;2024-03-08T11:31:25;18.92;;;16.95;;
36797;SDS011;22748;8.426;99.512;2024-03-08T11:33:55;20.27;;;15.18;;
36797;SDS011;22748;8.426;99.512;2024-03-08T11:36:26;17.17;;;15.30;;
36797;SDS011;22748;8.426;99.512;2024-03-08T11:38:57;18.92;;;14.15;;
36797;SDS011;22748;8.426;99.512;2024-03-08T11:41:36;22.60;;;18.05;;
36797;SDS011;22748;8.426;99.512;2024-03-08T11:44:14;32.30;;;21.80;;
36797;SDS011;22748;8.426;99.512;2024-03-08T11:46:47;20.05;;;17.38;;
36797;SDS011;22748;8.426;99.512;2024-03-08T11:49:18;25.80;;;17.17;;
36797;SDS011;22748;8.426;99.512;2024-03-08T11:51:50;31.85;;;19.67;;
36797;SDS011;22748;8.426;99.512;2024-03-08T11:54:21;24.33;;;19.02;;
36797;SDS011;22748;8.426;99.512;2024-03-08T11:59:23;75.82;;;58.28;;
36797;SDS011;22748;8.426;99.512;2024-03-08T12:02:02;52.97;;;41.67;;
36797;SDS011;22748;8.426;99.512;2024-03-08T12:04:33;60.60;;;49.90;;
36797;SDS011;22748;8.426;99.512;2024-03-08T12:07:02;59.47;;;43.33;;
36797;SDS011;22748;8.426;99.512;2024-03-08T12:09:35;44.50;;;33.88;;
36797;SDS011;22748;8.426;99.512;2024-03-08T12:12:06;37.58;;;28.67;;
36797;SDS011;22748;8.426;99.512;2024-03-08T12:14:44;32.80;;;25.80;;
36797;SDS011;22748;8.426;99.512;2024-03-08T12:17:14;33.63;;;22.65;;
36797;SDS011;22748;8.426;99.512;2024-03-08T12:19:46;31.10;;;24.10;;
36797;SDS011;22748;8.426;99.512;2024-03-08T12:24:44;27.80;;;18.65;;
36797;SDS011;22748;8.426;99.512;2024-03-08T12:27:21;22.40;;;19.13;;
36797;SDS011;22748;8.426;99.512;2024-03-08T12:29:56;27.40;;;19.35;;
36797;SDS011;22748;8.426;99.512;2024-03-08T12:32:26;26.90;;;18.85;;
36797;SDS011;22748;8.426;99.512;2024-03-08T12:34:56;26.17;;;18.58;;
36797;SDS011;22748;8.426;99.512;2024-03-08T12:37:27;22.63;;;18.90;;
36797;SDS011;22748;8.426;99.512;2024-03-08T12:39:57;22.33;;;18.17;;
36797;SDS011;22748;8.426;99.512;2024-03-08T12:42:33;27.75;;;21.10;;
36797;SDS011;22748;8.426;99.512;2024-03-08T12:45:10;24.58;;;21.98;;
36797;SDS011;22748;8.426;99.512;2024-03-08T12:47:40;28.40;;;24.88;;
36797;SDS011;22748;8.426;99.512;2024-03-08T12:50:10;29.52;;;25.13;;
36797;SDS011;22748;8.426;99.512;2024-03-08T12:52:43;31.38;;;24.40;;
36797;SDS011;22748;8.426;99.512;2024-03-08T12:55:16;30.25;;;25.48;;
36797;SDS011;22748;8.426;99.512;2024-03-08T12:57:46;29.85;;;23.92;;
36797;SDS011;22748;8.426;99.512;2024-03-08T13:00:21;31.77;;;24.98;;
36797;SDS011;22748;8.426;99.512;2024-03-08T13:02:53;35.40;;;26.30;;
36797;SDS011;22748;8.426;99.512;2024-03-08T13:05:23;31.73;;;26.08;;
36797;SDS011;22748;8.426;99.512;2024-03-08T13:07:54;31.30;;;24.02;;
36797;SDS011;22748;8.426;99.512;2024-03-08T13:10:24;31.47;;;24.30;;
36797;SDS011;22748;8.426;99.512;2024-03-08T13:12:56;28.08;;;23.35;;
36797;SDS011;22748;8.426;99.512;2024-03-08T13:15:29;28.60;;;22.23;;
36797;SDS011;22748;8.426;99.512;2024-03-08T13:18:00;29.17;;;22.02;;
36797;SDS011;22748;8.426;99.512;2024-03-08T13:20:30;25.80;;;21.85;;
36797;SDS011;22748;8.426;99.512;2024-03-08T13:23:00;29.97;;;22.77;;
36797;SDS011;22748;8.426;99.512;2024-03-08T13:25:32;27.25;;;21.52;;
36797;SDS011;22748;8.426;99.512;2024-03-08T13:28:05;29.77;;;20.92;;
36797;SDS011;22748;8.426;99.512;2024-03-08T13:30:39;24.88;;;19.60;;
36797;SDS011;22748;8.426;99.512;2024-03-08T13:33:08;23.02;;;18.17;;
36797;SDS011;22748;8.426;99.512;2024-03-08T13:35:38;22.52;;;18.38;;
36797;SDS011;22748;8.426;99.512;2024-03-08T13:38:08;37.78;;;27.05;;
36797;SDS011;22748;8.426;99.512;2024-03-08T13:40:39;62.88;;;41.67;;
36797;SDS011;22748;8.426;99.512;2024-03-08T13:43:09;68.40;;;46.72;;
36797;SDS011;22748;8.426;99.512;2024-03-08T13:45:48;68.32;;;47.22;;
36797;SDS011;22748;8.426;99.512;2024-03-08T13:48:19;52.55;;;37.67;;
36797;SDS011;22748;8.426;99.512;2024-03-08T13:50:50;50.30;;;35.53;;
36797;SDS011;22748;8.426;99.512;2024-03-08T13:53:20;47.28;;;30.63;;
36797;SDS011;22748;8.426;99.512;2024-03-08T13:55:50;35.22;;;25.35;;
36797;SDS011;22748;8.426;99.512;2024-03-08T13:58:21;31.27;;;22.23;;
36797;SDS011;22748;8.426;99.512;2024-03-08T14:00:59;26.45;;;20.90;;
36797;SDS011;22748;8.426;99.512;2024-03-08T14:03:32;27.20;;;20.67;;
36797;SDS011;22748;8.426;99.512;2024-03-08T14:06:03;27.60;;;19.83;;
36797;SDS011;22748;8.426;99.512;2024-03-08T14:08:33;28.70;;;19.33;;
36797;SDS011;22748;8.426;99.512;2024-03-08T14:11:04;21.95;;;18.60;;
36797;SDS011;22748;8.426;99.512;2024-03-08T14:13:41;21.15;;;18.20;;
36797;SDS011;22748;8.426;99.512;2024-03-08T14:16:20;23.88;;;19.10;;
36797;SDS011;22748;8.426;99.512;2024-03-08T14:18:50;24.00;;;20.00;;
36797;SDS011;22748;8.426;99.512;2024-03-08T14:21:22;24.15;;;19.23;;
36797;SDS011;22748;8.426;99.512;2024-03-08T14:23:54;28.95;;;20.63;;
36797;SDS011;22748;8.426;99.512;2024-03-08T14:26:28;26.25;;;21.58;;
36797;SDS011;22748;8.426;99.512;2024-03-08T14:28:59;32.15;;;22.38;;
36797;SDS011;22748;8.426;99.512;2024-03-08T14:31:37;24.30;;;19.85;;
36797;SDS011;22748;8.426;99.512;2024-03-08T14:34:09;21.15;;;18.88;;
36797;SDS011;22748;8.426;99.512;2024-03-08T14:36:40;23.33;;;18.58;;
36797;SDS011;22748;8.426;99.512;2024-03-08T14:39:10;19.35;;;17.17;;
36797;SDS011;22748;8.426;99.512;2024-03-08T14:41:40;19.75;;;17.25;;
36797;SDS011;22748;8.426;99.512;2024-03-08T14:44:09;22.35;;;16.92;;
36797;SDS011;22748;8.426;99.512;2024-03-08T14:46:45;20.20;;;17.88;;
36797;SDS011;22748;8.426;99.512;2024-03-08T14:49:16;18.00;;;15.88;;
36797;SDS011;22748;8.426;99.512;2024-03-08T15:02:54;29.52;;;23.95;;
36797;SDS011;22748;8.426;99.512;2024-03-08T15:05:24;32.63;;;24.10;;
36797;SDS011;22748;8.426;99.512;2024-03-08T15:07:54;29.35;;;22.92;;
36797;SDS011;22748;8.426;99.512;2024-03-08T15:10:25;27.98;;;23.10;;
36797;SDS011;22748;8.426;99.512;2024-03-08T15:12:57;30.90;;;23.63;;
36797;SDS011;22748;8.426;99.512;2024-03-08T15:15:28;29.38;;;22.90;;
36797;SDS011;22748;8.426;99.512;2024-03-08T15:18:04;27.15;;;20.55;;
36797;SDS011;22748;8.426;99.512;2024-03-08T15:20:34;20.52;;;17.63;;
36797;SDS011;22748;8.426;99.512;2024-03-08T15:23:06;23.08;;;18.95;;
36797;SDS011;22748;8.426;99.512;2024-03-08T15:25:37;19.27;;;17.10;;
36797;SDS011;22748;8.426;99.512;2024-03-08T15:28:08;19.98;;;18.00;;